sensor_id;sensor_type;location;lat;lon;timestamp;pressure;altitude;pressure_sealevel;temperature;humidity
40384;BME280;26097;42.366;23.818;2023-01-26T00:00:42;94588.53;;;-2.49;100.00
40384;BME280;26097;42.366;23.818;2023-01-26T00:03:43;94583.34;;;-2.46;100.00
40384;BME280;26097;42.366;23.818;2023-01-26T00:06:43;94587.47;;;-2.38;100.00
40384;BME280;26097;42.366;23.818;2023-01-26T00:09:44;94604.59;;;-2.42;100.00
40384;BME280;26097;42.366;23.818;2023-01-26T00:12:44;94591.75;;;-2.39;100.00
40384;BME280;26097;42.366;23.818;2023-01-26T00:15:45;94592.72;;;-2.46;100.00
40384;BME280;26097;42.366;23.818;2023-01-26T00:18:45;94583.34;;;-2.46;100.00
40384;BME280;26097;42.366;23.818;2023-01-26T00:21:45;94584.16;;;-2.44;100.00
40384;BME280;26097;42.366;23.818;2023-01-26T00:24:46;94584.06;;;-2.37;100.00
40384;BME280;26097;42.366;23.818;2023-01-26T00:27:46;94576.41;;;-2.37;100.00
40384;BME280;26097;42.366;23.818;2023-01-26T00:30:47;94583.19;;;-2.36;100.00
40384;BME280;26097;42.366;23.818;2023-01-26T00:33:48;94572.22;;;-2.41;100.00
40384;BME280;26097;42.366;23.818;2023-01-26T00:36:49;94573.81;;;-2.36;100.00
40384;BME280;26097;42.366;23.818;2023-01-26T00:39:49;94573.81;;;-2.36;100.00
40384;BME280;26097;42.366;23.818;2023-01-26T00:42:50;94561.88;;;-2.34;100.00
40384;BME280;26097;42.366;23.818;2023-01-26T00:45:53;94561.06;;;-2.37;100.00
40384;BME280;26097;42.366;23.818;2023-01-26T00:48:53;94555.88;;;-2.31;100.00
40384;BME280;26097;42.366;23.818;2023-01-26T00:51:54;94559.31;;;-2.32;100.00
40384;BME280;26097;42.366;23.818;2023-01-26T00:54:54;94555.94;;;-2.34;100.00
40384;BME280;26097;42.366;23.818;2023-01-26T00:57:54;94557.63;;;-2.35;100.00
40384;BME280;26097;42.366;23.818;2023-01-26T01:00:55;94558.44;;;-2.33;100.00
40384;BME280;26097;42.366;23.818;2023-01-26T01:03:58;94552.53;;;-2.36;100.00
40384;BME280;26097;42.366;23.818;2023-01-26T01:06:59;94547.41;;;-2.33;100.00
40384;BME280;26097;42.366;23.818;2023-01-26T01:09:59;94546.53;;;-2.32;100.00
40384;BME280;26097;42.366;23.818;2023-01-26T01:13:00;94547.41;;;-2.33;100.00
40384;BME280;26097;42.366;23.818;2023-01-26T01:16:07;94538.16;;;-2.39;100.00
40384;BME280;26097;42.366;23.818;2023-01-26T01:19:08;94527.06;;;-2.39;100.00
40384;BME280;26097;42.366;23.818;2023-01-26T01:22:11;94530.44;;;-2.37;100.00
40384;BME280;26097;42.366;23.818;2023-01-26T01:25:12;94530.44;;;-2.37;100.00
40384;BME280;26097;42.366;23.818;2023-01-26T01:28:12;94528.81;;;-2.41;100.00
40384;BME280;26097;42.366;23.818;2023-01-26T01:31:14;94519.47;;;-2.41;100.00
40384;BME280;26097;42.366;23.818;2023-01-26T01:34:15;94515.25;;;-2.44;100.00
40384;BME280;26097;42.366;23.818;2023-01-26T01:37:16;94508.38;;;-2.40;100.00
40384;BME280;26097;42.366;23.818;2023-01-26T01:40:16;94508.34;;;-2.38;100.00
40384;BME280;26097;42.366;23.818;2023-01-26T01:43:17;94513.56;;;-2.45;100.00
40384;BME280;26097;42.366;23.818;2023-01-26T01:46:31;94515.25;;;-2.44;100.00
40384;BME280;26097;42.366;23.818;2023-01-26T01:49:41;94508.41;;;-2.41;100.00
40384;BME280;26097;42.366;23.818;2023-01-26T01:52:43;94505.09;;;-2.47;100.00
40384;BME280;26097;42.366;23.818;2023-01-26T01:55:44;94507.66;;;-2.48;100.00
40384;BME280;26097;42.366;23.818;2023-01-26T01:58:47;94492.25;;;-2.44;100.00
40384;BME280;26097;42.366;23.818;2023-01-26T02:01:49;94496.56;;;-2.46;100.00
40384;BME280;26097;42.366;23.818;2023-01-26T02:04:51;94496.63;;;-2.49;100.00
40384;BME280;26097;42.366;23.818;2023-01-26T02:07:53;94490.59;;;-2.46;100.00
40384;BME280;26097;42.366;23.818;2023-01-26T02:10:56;94482.88;;;-2.41;100.00
40384;BME280;26097;42.366;23.818;2023-01-26T02:13:59;94482.78;;;-2.37;100.00
40384;BME280;26097;42.366;23.818;2023-01-26T02:17:01;94482.69;;;-2.32;100.00
40384;BME280;26097;42.366;23.818;2023-01-26T02:20:10;94484.47;;;-2.37;100.00
40384;BME280;26097;42.366;23.818;2023-01-26T02:26:36;94478.69;;;-2.46;100.00
40384;BME280;26097;42.366;23.818;2023-01-26T02:29:37;94468.47;;;-2.46;100.00
40384;BME280;26097;42.366;23.818;2023-01-26T02:32:37;94466.88;;;-2.50;100.00
40384;BME280;26097;42.366;23.818;2023-01-26T02:35:37;94465.88;;;-2.42;100.00
40384;BME280;26097;42.366;23.818;2023-01-26T02:38:43;94464.13;;;-2.40;100.00
40384;BME280;26097;42.366;23.818;2023-01-26T02:41:46;94457.41;;;-2.45;100.00
40384;BME280;26097;42.366;23.818;2023-01-26T02:45:09;94455.72;;;-2.46;100.00
40384;BME280;26097;42.366;23.818;2023-01-26T02:48:11;94451.47;;;-2.45;100.00
40384;BME280;26097;42.366;23.818;2023-01-26T02:51:12;94447.19;;;-2.45;100.00
40384;BME280;26097;42.366;23.818;2023-01-26T02:54:12;94450.63;;;-2.46;100.00
40384;BME280;26097;42.366;23.818;2023-01-26T02:57:32;94446.31;;;-2.44;100.00
40384;BME280;26097;42.366;23.818;2023-01-26T03:00:35;94441.22;;;-2.44;100.00
40384;BME280;26097;42.366;23.818;2023-01-26T03:03:36;94431.81;;;-2.41;100.00
40384;BME280;26097;42.366;23.818;2023-01-26T03:06:44;94431.81;;;-2.41;100.00
40384;BME280;26097;42.366;23.818;2023-01-26T03:09:44;94422.44;;;-2.41;100.00
40384;BME280;26097;42.366;23.818;2023-01-26T03:12:45;94424.94;;;-2.39;100.00
40384;BME280;26097;42.366;23.818;2023-01-26T03:15:45;94403.78;;;-2.45;100.00
40384;BME280;26097;42.366;23.818;2023-01-26T03:18:53;94409.78;;;-2.46;100.00
40384;BME280;26097;42.366;23.818;2023-01-26T03:22:02;94401.22;;;-2.45;100.00
40384;BME280;26097;42.366;23.818;2023-01-26T03:25:21;94399.56;;;-2.47;100.00
40384;BME280;26097;42.366;23.818;2023-01-26T03:28:40;94391.91;;;-2.46;100.00
40384;BME280;26097;42.366;23.818;2023-01-26T03:31:40;94386.72;;;-2.42;100.00
40384;BME280;26097;42.366;23.818;2023-01-26T03:34:41;94389.25;;;-2.41;100.00
40384;BME280;26097;42.366;23.818;2023-01-26T03:37:42;94394.31;;;-2.39;100.00
40384;BME280;26097;42.366;23.818;2023-01-26T03:40:42;94380.75;;;-2.41;100.00
40384;BME280;26097;42.366;23.818;2023-01-26T03:44:12;94390.22;;;-2.48;100.00
40384;BME280;26097;42.366;23.818;2023-01-26T03:47:32;94380.03;;;-2.48;100.00
40384;BME280;26097;42.366;23.818;2023-01-26T03:50:51;94382.72;;;-2.56;100.00
40384;BME280;26097;42.366;23.818;2023-01-26T03:54:10;94375.88;;;-2.52;100.00
40384;BME280;26097;42.366;23.818;2023-01-26T03:57:28;94369.81;;;-2.48;100.00
40384;BME280;26097;42.366;23.818;2023-01-26T04:00:29;94364.03;;;-2.55;100.00
40384;BME280;26097;42.366;23.818;2023-01-26T04:03:29;94366.47;;;-2.50;100.00
40384;BME280;26097;42.366;23.818;2023-01-26T04:06:48;94358.88;;;-2.53;100.00
40384;BME280;26097;42.366;23.818;2023-01-26T04:10:08;94359.75;;;-2.56;100.00
40384;BME280;26097;42.366;23.818;2023-01-26T04:13:08;94353.91;;;-2.61;100.00
40384;BME280;26097;42.366;23.818;2023-01-26T04:16:27;94349.72;;;-2.64;100.00
40384;BME280;26097;42.366;23.818;2023-01-26T04:19:47;94339.53;;;-2.64;100.00
40384;BME280;26097;42.366;23.818;2023-01-26T04:23:06;94347.28;;;-2.68;100.00
40384;BME280;26097;42.366;23.818;2023-01-26T04:26:06;94349.78;;;-2.67;100.00
40384;BME280;26097;42.366;23.818;2023-01-26T04:29:09;94345.47;;;-2.63;100.00
40384;BME280;26097;42.366;23.818;2023-01-26T04:32:10;94332.69;;;-2.63;100.00
40384;BME280;26097;42.366;23.818;2023-01-26T04:35:10;94325.81;;;-2.60;100.00
40384;BME280;26097;42.366;23.818;2023-01-26T04:38:11;94324.09;;;-2.59;100.00
40384;BME280;26097;42.366;23.818;2023-01-26T04:41:11;94320.78;;;-2.63;100.00
40384;BME280;26097;42.366;23.818;2023-01-26T04:44:12;94312.34;;;-2.66;100.00
40384;BME280;26097;42.366;23.818;2023-01-26T04:47:12;94314.75;;;-2.60;100.00
40384;BME280;26097;42.366;23.818;2023-01-26T04:50:12;94308.84;;;-2.62;100.00
40384;BME280;26097;42.366;23.818;2023-01-26T04:53:13;94312.28;;;-2.63;100.00
40384;BME280;26097;42.366;23.818;2023-01-26T04:56:21;94316.56;;;-2.64;100.00
40384;BME280;26097;42.366;23.818;2023-01-26T04:59:22;94318.19;;;-2.61;100.00
40384;BME280;26097;42.366;23.818;2023-01-26T05:02:22;94314.81;;;-2.62;100.00
40384;BME280;26097;42.366;23.818;2023-01-26T05:05:22;94313.22;;;-2.67;100.00
40384;BME280;26097;42.366;23.818;2023-01-26T05:08:23;94314.84;;;-2.63;100.00
40384;BME280;26097;42.366;23.818;2023-01-26T05:11:23;94313.16;;;-2.64;100.00
40384;BME280;26097;42.366;23.818;2023-01-26T05:14:24;94307.22;;;-2.65;100.00
40384;BME280;26097;42.366;23.818;2023-01-26T05:17:24;94307.25;;;-2.68;100.00
40384;BME280;26097;42.366;23.818;2023-01-26T05:20:25;94301.19;;;-2.62;100.00
40384;BME280;26097;42.366;23.818;2023-01-26T05:23:25;94309.94;;;-2.73;100.00
40384;BME280;26097;42.366;23.818;2023-01-26T05:26:26;94309.94;;;-2.73;100.00
40384;BME280;26097;42.366;23.818;2023-01-26T05:29:26;94315.03;;;-2.73;100.00
40384;BME280;26097;42.366;23.818;2023-01-26T05:32:27;94312.53;;;-2.76;100.00
40384;BME280;26097;42.366;23.818;2023-01-26T05:35:28;94318.41;;;-2.70;100.00
40384;BME280;26097;42.366;23.818;2023-01-26T05:38:29;94309.94;;;-2.74;100.00
40384;BME280;26097;42.366;23.818;2023-01-26T05:41:29;94306.59;;;-2.75;100.00
40384;BME280;26097;42.366;23.818;2023-01-26T05:44:29;94297.25;;;-2.77;100.00
40384;BME280;26097;42.366;23.818;2023-01-26T05:47:30;94299.75;;;-2.76;100.00
40384;BME280;26097;42.366;23.818;2023-01-26T05:50:31;94288.72;;;-2.75;100.00
40384;BME280;26097;42.366;23.818;2023-01-26T05:53:31;94283.44;;;-2.67;100.00
40384;BME280;26097;42.366;23.818;2023-01-26T05:56:31;94285.09;;;-2.64;100.00
40384;BME280;26097;42.366;23.818;2023-01-26T05:59:32;94292.75;;;-2.64;100.00
40384;BME280;26097;42.366;23.818;2023-01-26T06:02:32;94292.59;;;-2.58;100.00
40384;BME280;26097;42.366;23.818;2023-01-26T06:05:33;94297.66;;;-2.55;100.00
40384;BME280;26097;42.366;23.818;2023-01-26T06:08:33;94289.25;;;-2.60;100.00
40384;BME280;26097;42.366;23.818;2023-01-26T06:11:33;94284.91;;;-2.55;100.00
40384;BME280;26097;42.366;23.818;2023-01-26T06:14:34;94285.56;;;-2.47;100.00
40384;BME280;26097;42.366;23.818;2023-01-26T06:17:34;94292.19;;;-2.39;100.00
40384;BME280;26097;42.366;23.818;2023-01-26T06:20:34;94299.06;;;-2.41;100.00
40384;BME280;26097;42.366;23.818;2023-01-26T06:23:35;94292.34;;;-2.46;100.00
40384;BME280;26097;42.366;23.818;2023-01-26T06:26:35;94292.91;;;-2.33;100.00
40384;BME280;26097;42.366;23.818;2023-01-26T06:29:35;94289.34;;;-2.25;100.00
40384;BME280;26097;42.366;23.818;2023-01-26T06:32:36;94286.66;;;-2.21;100.00
40384;BME280;26097;42.366;23.818;2023-01-26T06:35:37;94286.81;;;-2.27;100.00
40384;BME280;26097;42.366;23.818;2023-01-26T06:38:37;94280.69;;;-2.20;100.00
40384;BME280;26097;42.366;23.818;2023-01-26T06:41:39;94276.34;;;-2.14;100.00
40384;BME280;26097;42.366;23.818;2023-01-26T06:44:41;94269.56;;;-2.16;100.00
40384;BME280;26097;42.366;23.818;2023-01-26T06:47:50;94279.63;;;-2.09;100.00
40384;BME280;26097;42.366;23.818;2023-01-26T06:50:51;94273.44;;;-2.01;100.00
40384;BME280;26097;42.366;23.818;2023-01-26T06:53:54;94279.16;;;-1.91;100.00
40384;BME280;26097;42.366;23.818;2023-01-26T06:56:55;94260.34;;;-1.88;100.00
40384;BME280;26097;42.366;23.818;2023-01-26T06:59:55;94268.84;;;-1.86;100.00
40384;BME280;26097;42.366;23.818;2023-01-26T07:02:56;94266.75;;;-1.72;100.00
40384;BME280;26097;42.366;23.818;2023-01-26T07:05:57;94258.09;;;-1.66;100.00
40384;BME280;26097;42.366;23.818;2023-01-26T07:08:57;94256.34;;;-1.64;100.00
40384;BME280;26097;42.366;23.818;2023-01-26T07:11:57;94246.03;;;-1.61;100.00
40384;BME280;26097;42.366;23.818;2023-01-26T07:14:58;94247.66;;;-1.56;100.00
40384;BME280;26097;42.366;23.818;2023-01-26T07:17:59;94253.00;;;-1.66;100.00
40384;BME280;26097;42.366;23.818;2023-01-26T07:21:04;94241.69;;;-1.57;100.00
40384;BME280;26097;42.366;23.818;2023-01-26T07:24:05;94239.16;;;-1.59;100.00
40384;BME280;26097;42.366;23.818;2023-01-26T07:27:07;94230.56;;;-1.54;100.00
40384;BME280;26097;42.366;23.818;2023-01-26T07:30:08;94246.59;;;-1.49;100.00
40384;BME280;26097;42.366;23.818;2023-01-26T07:33:09;94249.38;;;-1.59;100.00
40384;BME280;26097;42.366;23.818;2023-01-26T07:36:09;94250.34;;;-1.63;100.00
40384;BME280;26097;42.366;23.818;2023-01-26T07:39:10;94242.13;;;-1.41;100.00
40384;BME280;26097;42.366;23.818;2023-01-26T07:42:10;94244.44;;;-1.32;100.00
40384;BME280;26097;42.366;23.818;2023-01-26T07:45:12;94242.69;;;-1.31;100.00
40384;BME280;26097;42.366;23.818;2023-01-26T07:48:12;94240.78;;;-1.23;100.00
40384;BME280;26097;42.366;23.818;2023-01-26T07:51:14;94238.34;;;-1.27;100.00
40384;BME280;26097;42.366;23.818;2023-01-26T07:54:15;94225.53;;;-1.26;100.00
40384;BME280;26097;42.366;23.818;2023-01-26T07:57:15;94205.56;;;-1.13;100.00
40384;BME280;26097;42.366;23.818;2023-01-26T08:00:16;94220.47;;;-0.97;100.00
40384;BME280;26097;42.366;23.818;2023-01-26T08:03:17;94218.13;;;-1.05;100.00
40384;BME280;26097;42.366;23.818;2023-01-26T08:06:17;94212.16;;;-1.06;100.00
40384;BME280;26097;42.366;23.818;2023-01-26T08:09:18;94212.84;;;-0.99;100.00
40384;BME280;26097;42.366;23.818;2023-01-26T08:12:18;94203.16;;;-0.89;100.00
40384;BME280;26097;42.366;23.818;2023-01-26T08:15:19;94199.50;;;-0.80;100.00
40384;BME280;26097;42.366;23.818;2023-01-26T08:18:19;94191.59;;;-0.73;100.00
40384;BME280;26097;42.366;23.818;2023-01-26T08:21:20;94196.47;;;-0.65;100.00
40384;BME280;26097;42.366;23.818;2023-01-26T08:24:20;94195.72;;;-0.68;100.00
40384;BME280;26097;42.366;23.818;2023-01-26T08:27:21;94191.59;;;-0.73;100.00
40384;BME280;26097;42.366;23.818;2023-01-26T08:30:22;94193.25;;;-0.72;100.00
40384;BME280;26097;42.366;23.818;2023-01-26T08:33:23;94195.53;;;-0.62;100.00
40384;BME280;26097;42.366;23.818;2023-01-26T08:36:23;94195.53;;;-0.62;100.00
40384;BME280;26097;42.366;23.818;2023-01-26T08:39:24;94198.50;;;-0.76;100.00
40384;BME280;26097;42.366;23.818;2023-01-26T08:42:24;94205.81;;;-0.92;100.00
40384;BME280;26097;42.366;23.818;2023-01-26T08:45:24;94211.91;;;-0.96;100.00
40384;BME280;26097;42.366;23.818;2023-01-26T08:48:25;94209.84;;;-0.85;100.00
40384;BME280;26097;42.366;23.818;2023-01-26T08:51:26;94209.38;;;-0.98;100.00
40384;BME280;26097;42.366;23.818;2023-01-26T08:54:26;94202.72;;;-0.74;100.00
40384;BME280;26097;42.366;23.818;2023-01-26T08:57:27;94203.63;;;-0.48;100.00
40384;BME280;26097;42.366;23.818;2023-01-26T09:00:28;94207.44;;;-0.33;100.00
40384;BME280;26097;42.366;23.818;2023-01-26T09:03:29;94207.97;;;-0.23;100.00
40384;BME280;26097;42.366;23.818;2023-01-26T09:06:29;94207.19;;;-0.25;100.00
40384;BME280;26097;42.366;23.818;2023-01-26T09:09:32;94202.13;;;-0.26;100.00
40384;BME280;26097;42.366;23.818;2023-01-26T09:12:32;94204.47;;;-0.20;100.00
40384;BME280;26097;42.366;23.818;2023-01-26T09:15:32;94195.78;;;-0.15;100.00
40384;BME280;26097;42.366;23.818;2023-01-26T09:18:33;94184.78;;;-0.18;100.00
40384;BME280;26097;42.366;23.818;2023-01-26T09:21:33;94178.19;;;-0.25;100.00
40384;BME280;26097;42.366;23.818;2023-01-26T09:24:34;94177.38;;;-0.01;100.00
40384;BME280;26097;42.366;23.818;2023-01-26T09:27:35;94176.50;;;-0.01;100.00
40384;BME280;26097;42.366;23.818;2023-01-26T09:30:35;94171.72;;;-0.10;100.00
40384;BME280;26097;42.366;23.818;2023-01-26T09:33:36;94154.69;;;0.14;100.00
40384;BME280;26097;42.366;23.818;2023-01-26T09:36:36;94157.53;;;0.30;100.00
40384;BME280;26097;42.366;23.818;2023-01-26T09:39:37;94151.41;;;0.34;100.00
40384;BME280;26097;42.366;23.818;2023-01-26T09:49:08;94130.19;;;0.31;100.00
40384;BME280;26097;42.366;23.818;2023-01-26T09:52:37;94134.84;;;0.19;100.00
40384;BME280;26097;42.366;23.818;2023-01-26T09:55:39;94140.53;;;-0.23;100.00
40384;BME280;26097;42.366;23.818;2023-01-26T09:59:18;94137.72;;;-0.16;100.00
40384;BME280;26097;42.366;23.818;2023-01-26T10:08:58;94135.19;;;-0.17;100.00
40384;BME280;26097;42.366;23.818;2023-01-26T10:12:35;94131.22;;;-0.26;100.00
40384;BME280;26097;42.366;23.818;2023-01-26T10:15:38;94123.84;;;-0.35;100.00
40384;BME280;26097;42.366;23.818;2023-01-26T10:18:59;94102.59;;;-0.37;100.00
40384;BME280;26097;42.366;23.818;2023-01-26T10:22:10;94106.09;;;-0.41;100.00
40384;BME280;26097;42.366;23.818;2023-01-26T10:25:27;94091.78;;;-0.22;100.00
40384;BME280;26097;42.366;23.818;2023-01-26T10:28:30;94084.06;;;-0.20;100.00
40384;BME280;26097;42.366;23.818;2023-01-26T10:31:34;94074.66;;;-0.20;100.00
40384;BME280;26097;42.366;23.818;2023-01-26T10:34:37;94057.94;;;-0.05;100.00
40384;BME280;26097;42.366;23.818;2023-01-26T10:37:37;94039.03;;;-0.02;100.00
40384;BME280;26097;42.366;23.818;2023-01-26T10:40:43;94043.41;;;0.20;100.00
40384;BME280;26097;42.366;23.818;2023-01-26T10:47:13;94034.97;;;0.16;100.00
40384;BME280;26097;42.366;23.818;2023-01-26T10:50:20;94025.56;;;0.17;100.00
40384;BME280;26097;42.366;23.818;2023-01-26T10:53:26;94020.53;;;0.13;100.00
40384;BME280;26097;42.366;23.818;2023-01-26T10:56:30;94009.78;;;0.04;100.00
40384;BME280;26097;42.366;23.818;2023-01-26T10:59:41;93999.25;;;-0.12;100.00
40384;BME280;26097;42.366;23.818;2023-01-26T11:02:50;94008.28;;;-0.51;100.00
40384;BME280;26097;42.366;23.818;2023-01-26T11:06:14;93992.66;;;-0.44;100.00
40384;BME280;26097;42.366;23.818;2023-01-26T11:09:26;93986.84;;;-0.49;100.00
40384;BME280;26097;42.366;23.818;2023-01-26T11:12:27;93978.50;;;-0.54;100.00
40384;BME280;26097;42.366;23.818;2023-01-26T11:15:36;93980.47;;;-0.62;100.00
40384;BME280;26097;42.366;23.818;2023-01-26T11:22:10;93955.00;;;-0.65;100.00
40384;BME280;26097;42.366;23.818;2023-01-26T11:25:34;93951.09;;;-0.76;100.00
40384;BME280;26097;42.366;23.818;2023-01-26T11:32:09;93947.94;;;-0.84;100.00
40384;BME280;26097;42.366;23.818;2023-01-26T11:38:41;93943.41;;;-0.76;100.00
40384;BME280;26097;42.366;23.818;2023-01-26T11:42:17;93925.28;;;-0.69;100.00
40384;BME280;26097;42.366;23.818;2023-01-26T11:52:07;93923.72;;;-0.74;100.00
40384;BME280;26097;42.366;23.818;2023-01-26T11:58:47;93914.88;;;-0.65;100.00
40384;BME280;26097;42.366;23.818;2023-01-26T12:01:57;93909.91;;;-0.69;100.00
40384;BME280;26097;42.366;23.818;2023-01-26T12:05:03;93900.44;;;-0.67;100.00
40384;BME280;26097;42.366;23.818;2023-01-26T12:08:15;93897.75;;;-0.88;100.00
40384;BME280;26097;42.366;23.818;2023-01-26T12:11:30;93891.75;;;-0.87;100.00
40384;BME280;26097;42.366;23.818;2023-01-26T12:21:37;93894.03;;;-0.79;100.00
40384;BME280;26097;42.366;23.818;2023-01-26T12:24:46;93881.88;;;-0.73;100.00
40384;BME280;26097;42.366;23.818;2023-01-26T12:27:54;93887.44;;;-0.61;100.00
40384;BME280;26097;42.366;23.818;2023-01-26T12:31:48;93878.53;;;-0.51;100.00
40384;BME280;26097;42.366;23.818;2023-01-26T12:34:50;93876.06;;;-0.30;100.00
40384;BME280;26097;42.366;23.818;2023-01-26T12:37:57;93876.97;;;-0.31;100.00
40384;BME280;26097;42.366;23.818;2023-01-26T12:50:38;93857.22;;;-0.27;100.00
40384;BME280;26097;42.366;23.818;2023-01-26T12:53:53;93867.06;;;-0.40;100.00
40384;BME280;26097;42.366;23.818;2023-01-26T12:56:56;93853.81;;;-0.52;100.00
40384;BME280;26097;42.366;23.818;2023-01-26T13:00:15;93850.94;;;-0.66;100.00
40384;BME280;26097;42.366;23.818;2023-01-26T13:03:21;93846.97;;;-0.75;100.00
40384;BME280;26097;42.366;23.818;2023-01-26T13:06:27;93859.31;;;-0.87;100.00
40384;BME280;26097;42.366;23.818;2023-01-26T13:09:28;93864.38;;;-0.85;100.00
40384;BME280;26097;42.366;23.818;2023-01-26T13:22:45;93842.47;;;-0.92;100.00
40384;BME280;26097;42.366;23.818;2023-01-26T13:26:05;93834.56;;;-0.86;100.00
40384;BME280;26097;42.366;23.818;2023-01-26T13:35:25;93832.34;;;-0.72;100.00
40384;BME280;26097;42.366;23.818;2023-01-26T13:41:26;93816.88;;;-0.68;100.00
40384;BME280;26097;42.366;23.818;2023-01-26T13:44:36;93813.78;;;-0.77;100.00
40384;BME280;26097;42.366;23.818;2023-01-26T13:47:43;93803.06;;;-0.64;100.00
40384;BME280;26097;42.366;23.818;2023-01-26T13:50:49;93801.06;;;-0.80;100.00
40384;BME280;26097;42.366;23.818;2023-01-26T13:57:04;93801.38;;;-0.88;100.00
40384;BME280;26097;42.366;23.818;2023-01-26T14:00:10;93792.09;;;-0.92;100.00
40384;BME280;26097;42.366;23.818;2023-01-26T14:03:20;93782.94;;;-0.97;100.00
40384;BME280;26097;42.366;23.818;2023-01-26T14:06:21;93782.16;;;-0.99;100.00
40384;BME280;26097;42.366;23.818;2023-01-26T14:09:25;93783.03;;;-1.01;100.00
40384;BME280;26097;42.366;23.818;2023-01-26T14:15:30;93770.47;;;-1.07;100.00
40384;BME280;26097;42.366;23.818;2023-01-26T14:18:32;93767.91;;;-1.07;100.00
40384;BME280;26097;42.366;23.818;2023-01-26T14:24:48;93768.41;;;-1.21;100.00
40384;BME280;26097;42.366;23.818;2023-01-26T14:27:49;93773.56;;;-1.22;100.00
40384;BME280;26097;42.366;23.818;2023-01-26T14:30:59;93762.69;;;-1.27;100.00
40384;BME280;26097;42.366;23.818;2023-01-26T14:34:00;93764.47;;;-1.30;100.00
40384;BME280;26097;42.366;23.818;2023-01-26T14:37:15;93752.56;;;-1.31;100.00
40384;BME280;26097;42.366;23.818;2023-01-26T14:40:22;93750.00;;;-1.31;100.00
40384;BME280;26097;42.366;23.818;2023-01-26T14:43:25;93745.91;;;-1.35;100.00
40384;BME280;26097;42.366;23.818;2023-01-26T14:49:48;93741.03;;;-1.42;100.00
40384;BME280;26097;42.366;23.818;2023-01-26T14:52:50;93730.84;;;-1.44;100.00
40384;BME280;26097;42.366;23.818;2023-01-26T14:55:51;93730.84;;;-1.44;100.00
40384;BME280;26097;42.366;23.818;2023-01-26T14:58:53;93734.09;;;-1.39;100.00
40384;BME280;26097;42.366;23.818;2023-01-26T15:02:16;93731.63;;;-1.42;100.00
40384;BME280;26097;42.366;23.818;2023-01-26T15:05:19;93735.97;;;-1.44;100.00
40384;BME280;26097;42.366;23.818;2023-01-26T15:08:23;93731.00;;;-1.49;100.00
40384;BME280;26097;42.366;23.818;2023-01-26T15:11:41;93729.41;;;-1.51;100.00
40384;BME280;26097;42.366;23.818;2023-01-26T15:15:01;93726.91;;;-1.53;100.00
40384;BME280;26097;42.366;23.818;2023-01-26T15:21:20;93724.19;;;-1.48;100.00
40384;BME280;26097;42.366;23.818;2023-01-26T15:24:21;93724.22;;;-1.50;100.00
40384;BME280;26097;42.366;23.818;2023-01-26T15:27:22;93722.63;;;-1.52;100.00
40384;BME280;26097;42.366;23.818;2023-01-26T15:30:29;93714.97;;;-1.52;100.00
40384;BME280;26097;42.366;23.818;2023-01-26T15:33:45;93710.63;;;-1.50;100.00
40384;BME280;26097;42.366;23.818;2023-01-26T15:36:49;93715.84;;;-1.53;100.00
40384;BME280;26097;42.366;23.818;2023-01-26T15:39:50;93710.91;;;-1.58;100.00
40384;BME280;26097;42.366;23.818;2023-01-26T15:42:50;93708.31;;;-1.56;100.00
40384;BME280;26097;42.366;23.818;2023-01-26T15:46:03;93706.59;;;-1.58;100.00
40384;BME280;26097;42.366;23.818;2023-01-26T15:49:03;93707.41;;;-1.55;100.00
40384;BME280;26097;42.366;23.818;2023-01-26T15:52:14;93698.75;;;-1.51;100.00
40384;BME280;26097;42.366;23.818;2023-01-26T15:55:20;93692.06;;;-1.55;100.00
40384;BME280;26097;42.366;23.818;2023-01-26T15:58:24;93686.91;;;-1.54;100.00
40384;BME280;26097;42.366;23.818;2023-01-26T16:01:25;93671.63;;;-1.55;100.00
40384;BME280;26097;42.366;23.818;2023-01-26T16:04:25;93679.97;;;-1.50;100.00
40384;BME280;26097;42.366;23.818;2023-01-26T16:07:27;93677.53;;;-1.53;100.00
40384;BME280;26097;42.366;23.818;2023-01-26T16:10:27;93671.63;;;-1.55;100.00
40384;BME280;26097;42.366;23.818;2023-01-26T16:13:28;93662.66;;;-1.67;100.00
40384;BME280;26097;42.366;23.818;2023-01-26T16:16:28;93656.25;;;-1.79;100.00
40384;BME280;26097;42.366;23.818;2023-01-26T16:19:29;93656.84;;;-1.71;100.00
40384;BME280;26097;42.366;23.818;2023-01-26T16:22:29;93656.69;;;-1.66;100.00
40384;BME280;26097;42.366;23.818;2023-01-26T16:25:30;93656.72;;;-1.68;100.00
40384;BME280;26097;42.366;23.818;2023-01-26T16:28:31;93660.16;;;-1.69;100.00
40384;BME280;26097;42.366;23.818;2023-01-26T16:31:32;93658.38;;;-1.67;100.00
40384;BME280;26097;42.366;23.818;2023-01-26T16:34:35;93660.16;;;-1.69;100.00
40384;BME280;26097;42.366;23.818;2023-01-26T16:37:35;93661.16;;;-1.73;100.00
40384;BME280;26097;42.366;23.818;2023-01-26T16:40:36;93659.38;;;-1.71;100.00
40384;BME280;26097;42.366;23.818;2023-01-26T16:43:39;93656.50;;;-1.62;100.00
40384;BME280;26097;42.366;23.818;2023-01-26T16:46:39;93662.72;;;-1.69;100.00
40384;BME280;26097;42.366;23.818;2023-01-26T16:49:41;93654.72;;;-1.60;100.00
40384;BME280;26097;42.366;23.818;2023-01-26T16:52:41;93651.25;;;-1.59;100.00
40384;BME280;26097;42.366;23.818;2023-01-26T16:55:42;93646.28;;;-1.62;100.00
40384;BME280;26097;42.366;23.818;2023-01-26T16:58:42;93654.63;;;-1.56;100.00
40384;BME280;26097;42.366;23.818;2023-01-26T17:01:43;93653.66;;;-1.54;100.00
40384;BME280;26097;42.366;23.818;2023-01-26T17:04:43;93645.84;;;-1.49;100.00
40384;BME280;26097;42.366;23.818;2023-01-26T17:07:44;93644.91;;;-1.47;100.00
40384;BME280;26097;42.366;23.818;2023-01-26T17:10:44;93633.09;;;-1.51;100.00
40384;BME280;26097;42.366;23.818;2023-01-26T17:13:45;93631.50;;;-1.53;100.00
40384;BME280;26097;42.366;23.818;2023-01-26T17:16:46;93631.03;;;-1.41;100.00
40384;BME280;26097;42.366;23.818;2023-01-26T17:19:46;93617.44;;;-1.41;100.00
40384;BME280;26097;42.366;23.818;2023-01-26T17:22:47;93629.38;;;-1.42;100.00